createdAt,value
2023-01-20T00:00:33.311Z,8.65
2023-01-20T00:03:21.006Z,9.01
2023-01-20T00:06:09.792Z,8.97
2023-01-20T00:08:59.753Z,9.02
2023-01-20T00:11:47.586Z,8.90
2023-01-20T00:14:35.311Z,9.02
2023-01-20T00:17:22.999Z,9.01
2023-01-20T00:20:11.640Z,8.85
2023-01-20T00:22:59.329Z,8.94
2023-01-20T00:25:47.052Z,9.02
2023-01-20T00:28:36.083Z,8.83
2023-01-20T00:31:29.024Z,8.91
2023-01-20T00:34:16.763Z,8.95
2023-01-20T00:37:05.521Z,8.84
2023-01-20T00:39:53.195Z,8.86
2023-01-20T00:42:40.881Z,8.81
2023-01-20T00:45:28.613Z,8.91
2023-01-20T00:48:16.730Z,8.74
2023-01-20T00:51:05.743Z,8.93
2023-01-20T00:53:53.655Z,8.66
2023-01-20T00:56:41.209Z,9.00
2023-01-20T00:59:28.950Z,9.09
2023-01-20T01:02:16.743Z,9.11
2023-01-20T01:05:04.602Z,8.99
2023-01-20T01:07:52.337Z,8.70
2023-01-20T01:10:40.888Z,8.91
2023-01-20T01:13:28.575Z,8.88
2023-01-20T01:16:16.753Z,8.87
2023-01-20T01:19:04.617Z,8.70
2023-01-20T01:21:52.234Z,8.81
2023-01-20T01:24:39.953Z,8.88
2023-01-20T01:27:28.875Z,8.79
2023-01-20T01:30:16.838Z,8.91
2023-01-20T01:33:04.596Z,9.00
2023-01-20T01:35:57.247Z,8.97
2023-01-20T01:38:45.110Z,8.71
2023-01-20T01:41:45.345Z,8.81
2023-01-20T01:44:33.035Z,8.73
2023-01-20T01:47:20.744Z,8.70
2023-01-20T01:50:12.089Z,8.77
2023-01-20T01:53:00.034Z,8.74
2023-01-20T01:55:56.549Z,8.47
2023-01-20T01:58:49.310Z,8.63
2023-01-20T02:01:39.747Z,8.66
2023-01-20T02:04:28.473Z,8.79
2023-01-20T02:07:19.782Z,8.84
2023-01-20T02:10:07.766Z,8.85
2023-01-20T02:12:55.590Z,8.76
2023-01-20T02:16:08.844Z,8.71
2023-01-20T02:19:15.271Z,8.75
2023-01-20T02:22:21.544Z,8.71
2023-01-20T02:25:21.125Z,8.63
2023-01-20T02:28:42.680Z,8.57
2023-01-20T02:32:07.702Z,8.56
2023-01-20T02:35:11.283Z,8.53
2023-01-20T02:38:23.852Z,8.46
2023-01-20T02:41:19.099Z,8.32
2023-01-20T02:44:34.691Z,8.49
2023-01-20T02:47:35.950Z,8.34
2023-01-20T02:50:28.031Z,8.46
2023-01-20T02:53:19.979Z,8.46
2023-01-20T02:56:09.656Z,8.43
2023-01-20T02:59:06.616Z,8.41
2023-01-20T03:02:02.787Z,8.42
2023-01-20T03:04:56.776Z,8.45
2023-01-20T03:07:46.191Z,8.37
2023-01-20T03:10:37.847Z,8.42
2023-01-20T03:13:46.861Z,8.43
2023-01-20T03:16:34.861Z,8.44
2023-01-20T03:19:22.588Z,8.35
2023-01-20T03:22:10.475Z,8.26
2023-01-20T03:24:59.450Z,8.33
2023-01-20T03:27:47.633Z,8.19
2023-01-20T03:30:57.372Z,8.30
2023-01-20T03:33:47.337Z,8.37
2023-01-20T03:36:35.211Z,8.21
2023-01-20T03:39:24.673Z,8.38
2023-01-20T03:42:46.351Z,8.34
2023-01-20T03:46:03.492Z,8.27
2023-01-20T03:49:01.555Z,8.23
2023-01-20T03:52:00.811Z,8.31
2023-01-20T03:54:59.319Z,8.18
2023-01-20T03:58:12.610Z,8.18
2023-01-20T04:01:16.388Z,8.19
2023-01-20T04:04:10.506Z,8.28
2023-01-20T04:06:58.459Z,8.34
2023-01-20T04:09:51.486Z,8.18
2023-01-20T04:12:42.012Z,8.32
2023-01-20T04:15:35.361Z,8.33
2023-01-20T04:18:24.538Z,8.23
2023-01-20T04:21:31.715Z,8.12
2023-01-20T04:24:28.986Z,7.93
2023-01-20T04:27:16.694Z,8.32
2023-01-20T04:30:04.694Z,8.43
2023-01-20T04:32:52.356Z,8.43
2023-01-20T04:35:40.331Z,8.41
2023-01-20T04:38:30.455Z,8.36
2023-01-20T04:41:18.154Z,8.40
2023-01-20T04:44:06.112Z,8.40
2023-01-20T04:46:59.148Z,8.38
2023-01-20T04:49:50.988Z,8.40
2023-01-20T04:52:38.791Z,8.37
2023-01-20T04:55:26.962Z,8.29
2023-01-20T04:58:15.004Z,8.37
2023-01-20T05:01:03.257Z,8.33
2023-01-20T05:03:54.119Z,8.29
2023-01-20T05:06:43.711Z,8.24
2023-01-20T05:09:33.330Z,8.35
2023-01-20T05:12:20.991Z,8.41
2023-01-20T05:15:09.035Z,8.38
2023-01-20T05:17:56.850Z,8.38
2023-01-20T05:20:49.399Z,8.34
2023-01-20T05:23:37.094Z,8.31
2023-01-20T05:26:26.112Z,8.36
2023-01-20T05:29:13.745Z,8.38
2023-01-20T05:32:01.456Z,8.32
2023-01-20T05:34:49.133Z,8.41
2023-01-20T05:37:36.894Z,8.24
2023-01-20T05:40:24.578Z,8.36
2023-01-20T05:43:13.075Z,8.31
2023-01-20T05:46:00.986Z,8.38
2023-01-20T05:48:48.663Z,8.09
2023-01-20T05:51:36.304Z,8.44
2023-01-20T05:54:24.069Z,8.40
2023-01-20T05:57:11.753Z,8.39
2023-01-20T05:59:59.464Z,8.49
2023-01-20T06:02:47.239Z,8.45
2023-01-20T06:05:34.966Z,8.23
2023-01-20T06:08:22.792Z,8.41
2023-01-20T06:11:11.050Z,8.21
2023-01-20T06:13:58.880Z,8.31
2023-01-20T06:16:46.562Z,8.38
2023-01-20T06:19:34.324Z,8.37
2023-01-20T06:22:22.075Z,8.38
2023-01-20T06:25:10.069Z,8.39
2023-01-20T06:27:57.750Z,8.45
2023-01-20T06:30:45.426Z,8.47
2023-01-20T06:33:34.654Z,8.45
2023-01-20T06:36:22.852Z,8.44
2023-01-20T06:39:10.548Z,8.47
2023-01-20T06:41:59.416Z,8.49
2023-01-20T06:44:47.091Z,8.47
2023-01-20T06:47:34.745Z,8.56
2023-01-20T06:50:22.607Z,8.05
2023-01-20T06:53:11.782Z,8.53
2023-01-20T06:56:00.704Z,8.51
2023-01-20T06:58:48.405Z,8.55
2023-01-20T07:01:36.232Z,8.47
2023-01-20T07:04:26.648Z,8.43
2023-01-20T07:07:16.483Z,8.36
2023-01-20T07:10:04.588Z,8.59
2023-01-20T07:12:55.200Z,8.71
2023-01-20T07:15:42.968Z,8.52
2023-01-20T07:18:30.748Z,8.59
2023-01-20T07:21:19.218Z,8.49
2023-01-20T07:24:07.093Z,8.40
2023-01-20T07:26:54.835Z,8.38
2023-01-20T07:29:42.626Z,8.49
2023-01-20T07:32:34.109Z,8.41
2023-01-20T07:35:21.823Z,8.33
2023-01-20T07:38:09.540Z,8.27
2023-01-20T07:40:58.877Z,8.33
2023-01-20T07:43:49.010Z,8.39
2023-01-20T07:46:36.986Z,8.28
2023-01-20T07:49:24.757Z,8.51
2023-01-20T07:52:12.535Z,8.53
2023-01-20T07:55:00.385Z,8.59
2023-01-20T07:57:48.214Z,8.69
2023-01-20T08:00:35.844Z,8.60
2023-01-20T08:03:27.166Z,8.55
2023-01-20T08:06:17.646Z,8.61
2023-01-20T08:09:05.499Z,8.53
2023-01-20T08:11:53.208Z,8.64
2023-01-20T08:14:40.957Z,8.69
2023-01-20T08:17:28.706Z,8.74
2023-01-20T08:20:19.482Z,8.97
2023-01-20T08:23:07.722Z,8.98
2023-01-20T08:26:00.292Z,9.08
2023-01-20T08:28:48.046Z,9.21
2023-01-20T08:31:36.749Z,9.30
2023-01-20T08:34:24.521Z,9.25
2023-01-20T08:37:12.337Z,9.52
2023-01-20T08:40:00.034Z,9.55
2023-01-20T08:42:50.517Z,9.45
2023-01-20T08:45:38.403Z,9.75
2023-01-20T08:48:26.074Z,9.73
2023-01-20T08:51:21.630Z,9.79
2023-01-20T08:54:09.689Z,9.90
2023-01-20T08:56:57.350Z,9.89
2023-01-20T08:59:47.047Z,10.10
2023-01-20T09:02:34.975Z,10.11
2023-01-20T09:05:22.796Z,10.07
2023-01-20T09:08:10.607Z,10.11
2023-01-20T09:11:04.860Z,10.16
2023-01-20T09:13:53.096Z,10.08
2023-01-20T09:16:43.228Z,9.99
2023-01-20T09:19:31.243Z,9.92
2023-01-20T09:22:19.073Z,9.98
2023-01-20T09:25:09.942Z,9.89
2023-01-20T09:28:01.292Z,9.89
2023-01-20T09:30:49.213Z,9.76
2023-01-20T09:33:39.425Z,9.81
2023-01-20T09:36:29.592Z,9.55
2023-01-20T09:39:36.225Z,9.36
2023-01-20T09:43:06.522Z,9.36
2023-01-20T09:46:04.119Z,9.33
2023-01-20T09:49:42.134Z,9.10
2023-01-20T09:52:54.880Z,9.33
2023-01-20T09:56:25.902Z,9.24
2023-01-20T09:59:26.465Z,9.28
2023-01-20T10:02:33.977Z,9.19
2023-01-20T10:05:27.328Z,9.36
2023-01-20T10:08:24.430Z,9.49
2023-01-20T10:11:24.656Z,9.56
2023-01-20T10:14:29.037Z,9.62
2023-01-20T10:17:31.451Z,9.61
2023-01-20T10:20:28.267Z,9.72
2023-01-20T10:23:34.004Z,9.73
2023-01-20T10:26:29.131Z,9.74
2023-01-20T10:29:38.445Z,9.89
2023-01-20T10:32:36.826Z,9.94
2023-01-20T10:35:31.254Z,9.97
2023-01-20T10:38:33.273Z,9.94
2023-01-20T10:41:27.344Z,10.08
2023-01-20T10:44:16.162Z,10.18
2023-01-20T10:47:26.230Z,10.10
2023-01-20T10:50:16.923Z,10.30
2023-01-20T10:53:25.570Z,10.14
2023-01-20T10:56:33.056Z,10.22
2023-01-20T10:59:34.636Z,10.28
2023-01-20T11:02:29.853Z,10.43
2023-01-20T11:05:21.254Z,10.77
2023-01-20T11:08:28.553Z,10.71
2023-01-20T11:11:22.827Z,10.90
2023-01-20T11:14:10.747Z,11.15
2023-01-20T11:17:06.798Z,11.10
2023-01-20T11:20:05.680Z,11.54
2023-01-20T11:22:53.475Z,11.57
2023-01-20T11:25:41.168Z,11.62
2023-01-20T11:28:37.161Z,11.82
2023-01-20T11:31:41.481Z,11.45
2023-01-20T11:34:35.027Z,11.77
2023-01-20T11:37:34.874Z,11.94
2023-01-20T11:40:27.800Z,12.02
2023-01-20T11:43:29.168Z,11.91
2023-01-20T11:46:22.695Z,11.91
2023-01-20T11:49:24.820Z,11.91
2023-01-20T11:52:24.449Z,11.61
2023-01-20T11:55:21.209Z,11.85
2023-01-20T11:58:18.534Z,11.65
2023-01-20T12:01:07.616Z,11.57
2023-01-20T12:03:58.439Z,11.61
2023-01-20T12:07:03.987Z,11.54
2023-01-20T12:09:59.504Z,11.53
2023-01-20T12:12:47.170Z,11.60
2023-01-20T12:15:56.484Z,11.52
2023-01-20T12:19:01.734Z,11.47
2023-01-20T12:21:56.126Z,11.37
2023-01-20T12:25:08.510Z,11.62
2023-01-20T12:28:10.528Z,11.69
2023-01-20T12:31:01.497Z,11.56
2023-01-20T12:33:52.202Z,11.51
2023-01-20T12:36:57.978Z,11.57
2023-01-20T12:40:17.291Z,11.38
2023-01-20T12:43:20.183Z,11.34
2023-01-20T12:46:33.803Z,11.33
2023-01-20T12:49:33.700Z,11.22
2023-01-20T12:52:45.155Z,11.09
2023-01-20T12:55:41.716Z,11.10
2023-01-20T12:58:44.811Z,11.05
2023-01-20T13:01:35.224Z,11.10
2023-01-20T13:04:41.570Z,11.08
2023-01-20T13:07:41.112Z,11.04
2023-01-20T13:10:51.538Z,11.11
2023-01-20T13:14:09.196Z,11.09
2023-01-20T13:17:10.071Z,11.18
2023-01-20T13:20:01.841Z,11.19
2023-01-20T13:22:51.547Z,11.27
2023-01-20T13:25:41.106Z,11.28
2023-01-20T13:28:30.483Z,11.33
2023-01-20T13:31:45.207Z,11.36
2023-01-20T13:34:35.160Z,11.10
2023-01-20T13:37:29.776Z,11.18
2023-01-20T13:40:45.655Z,11.23
2023-01-20T13:43:35.655Z,11.16
2023-01-20T13:46:35.843Z,11.03
2023-01-20T13:49:30.097Z,11.07
2023-01-20T13:52:50.194Z,11.02
2023-01-20T13:55:46.177Z,10.77
2023-01-20T13:58:35.171Z,10.69
2023-01-20T14:01:22.726Z,10.67
2023-01-20T14:04:17.128Z,10.46
2023-01-20T14:07:10.019Z,10.09
2023-01-20T14:10:00.465Z,9.27
2023-01-20T14:12:49.127Z,8.63
2023-01-20T14:15:40.184Z,8.04
2023-01-20T14:18:28.435Z,7.82
2023-01-20T14:21:25.137Z,7.71
2023-01-20T14:24:34.673Z,7.60
2023-01-20T14:27:24.182Z,7.59
2023-01-20T14:30:16.843Z,7.40
2023-01-20T14:33:09.147Z,7.41
2023-01-20T14:35:57.358Z,7.48
2023-01-20T14:38:57.211Z,7.09
2023-01-20T14:41:47.898Z,7.04
2023-01-20T14:44:35.891Z,6.97
2023-01-20T14:47:25.848Z,6.74
2023-01-20T14:50:15.975Z,6.56
2023-01-20T14:53:04.566Z,6.46
2023-01-20T14:56:03.121Z,6.31
2023-01-20T14:58:54.987Z,6.23
2023-01-20T15:01:43.382Z,5.99
2023-01-20T15:04:38.293Z,5.88
2023-01-20T15:07:26.919Z,6.07
2023-01-20T15:10:18.560Z,5.75
2023-01-20T15:13:23.981Z,5.88
2023-01-20T15:16:18.682Z,5.88
2023-01-20T15:19:23.053Z,6.02
2023-01-20T15:22:22.048Z,5.70
2023-01-20T15:25:13.749Z,5.59
2023-01-20T15:28:01.532Z,5.53
2023-01-20T15:30:49.444Z,5.33
2023-01-20T15:33:39.221Z,4.94
2023-01-20T15:36:33.523Z,4.77
2023-01-20T15:39:29.199Z,4.82
2023-01-20T15:42:18.792Z,4.66
2023-01-20T15:45:06.962Z,4.64
2023-01-20T15:47:54.723Z,4.55
2023-01-20T15:50:43.211Z,4.46
2023-01-20T15:53:31.175Z,4.50
2023-01-20T15:56:28.395Z,4.36
2023-01-20T15:59:23.241Z,4.37
2023-01-20T16:02:29.274Z,4.42
2023-01-20T16:05:17.834Z,4.46
2023-01-20T16:08:21.226Z,4.46
2023-01-20T16:11:10.304Z,4.22
2023-01-20T16:13:59.428Z,4.27
2023-01-20T16:16:47.367Z,4.26
2023-01-20T16:19:36.510Z,4.05
2023-01-20T16:22:24.299Z,4.20
2023-01-20T16:25:11.915Z,4.07
2023-01-20T16:27:59.866Z,4.28
2023-01-20T16:30:48.662Z,4.18
2023-01-20T16:33:36.318Z,4.29
2023-01-20T16:36:28.895Z,4.13
2023-01-20T16:39:16.600Z,4.26
2023-01-20T16:42:04.579Z,4.33
2023-01-20T16:44:53.298Z,4.28
2023-01-20T16:47:43.517Z,4.35
2023-01-20T16:50:31.286Z,4.28
2023-01-20T16:53:20.215Z,4.31
2023-01-20T16:56:14.351Z,4.22
2023-01-20T16:59:02.924Z,4.25
2023-01-20T17:01:50.737Z,4.31
2023-01-20T17:04:39.125Z,4.36
2023-01-20T17:07:28.018Z,4.22
2023-01-20T17:10:17.100Z,4.32
2023-01-20T17:13:05.136Z,4.23
2023-01-20T17:15:52.986Z,4.17
2023-01-20T17:18:45.368Z,4.34
2023-01-20T17:21:34.996Z,4.15
2023-01-20T17:24:22.940Z,4.32
2023-01-20T17:27:10.742Z,4.12
2023-01-20T17:29:58.494Z,4.07
2023-01-20T17:32:48.466Z,4.12
2023-01-20T17:35:36.350Z,4.12
2023-01-20T17:38:24.700Z,4.04
2023-01-20T17:41:14.213Z,4.00
2023-01-20T17:44:04.425Z,4.05
2023-01-20T17:46:52.035Z,3.90
2023-01-20T17:49:39.923Z,4.05
2023-01-20T17:52:28.545Z,4.18
2023-01-20T17:55:16.429Z,4.03
2023-01-20T17:58:07.301Z,4.06
2023-01-20T18:00:55.003Z,4.02
2023-01-20T18:03:44.381Z,4.02
2023-01-20T18:06:35.224Z,3.92
2023-01-20T18:09:25.463Z,3.81
2023-01-20T18:12:13.580Z,3.80
2023-01-20T18:15:03.827Z,3.72
2023-01-20T18:17:51.598Z,3.74
2023-01-20T18:20:40.027Z,3.73
2023-01-20T18:23:27.684Z,3.14
2023-01-20T18:26:17.947Z,3.72
2023-01-20T18:29:12.983Z,3.64
2023-01-20T18:32:00.820Z,3.57
2023-01-20T18:34:48.512Z,3.56
2023-01-20T18:37:36.370Z,3.47
2023-01-20T18:40:26.429Z,3.46
2023-01-20T18:43:14.329Z,3.26
2023-01-20T18:46:02.017Z,2.79
2023-01-20T18:48:52.299Z,3.23
2023-01-20T18:51:42.532Z,3.01
2023-01-20T18:54:33.069Z,2.86
2023-01-20T18:57:20.647Z,3.09
2023-01-20T19:00:09.081Z,2.97
2023-01-20T19:02:58.626Z,2.82
2023-01-20T19:05:48.431Z,2.93
2023-01-20T19:08:36.239Z,2.85
2023-01-20T19:11:26.224Z,2.91
2023-01-20T19:14:15.427Z,2.87
2023-01-20T19:17:03.240Z,2.76
2023-01-20T19:19:50.855Z,2.70
2023-01-20T19:22:44.365Z,2.62
2023-01-20T19:26:43.306Z,2.70
2023-01-20T19:29:31.069Z,2.43
2023-01-20T19:32:18.640Z,2.32
2023-01-20T19:35:06.843Z,2.21
2023-01-20T19:37:55.386Z,2.16
2023-01-20T19:40:43.256Z,2.08
2023-01-20T19:43:30.915Z,2.03
2023-01-20T19:46:20.172Z,2.21
2023-01-20T19:49:07.918Z,1.91
2023-01-20T19:51:55.790Z,2.22
2023-01-20T19:54:43.610Z,2.14
2023-01-20T19:57:31.282Z,1.95
2023-01-20T20:00:19.582Z,1.91
2023-01-20T20:03:10.025Z,2.09
2023-01-20T20:05:58.064Z,1.82
2023-01-20T20:08:45.918Z,1.95
2023-01-20T20:11:34.509Z,1.64
2023-01-20T20:14:27.495Z,1.87
2023-01-20T20:17:15.136Z,1.97
2023-01-20T20:20:03.495Z,1.83
2023-01-20T20:22:51.259Z,1.92
2023-01-20T20:25:39.056Z,1.81
2023-01-20T20:28:30.715Z,1.81
2023-01-20T20:31:20.685Z,1.82
2023-01-20T20:34:12.397Z,1.68
2023-01-20T20:37:00.108Z,1.35
2023-01-20T20:39:47.736Z,1.56
2023-01-20T20:42:35.590Z,1.42
2023-01-20T20:45:23.326Z,1.44
2023-01-20T20:48:11.008Z,1.39
2023-01-20T20:51:17.075Z,1.54
2023-01-20T20:54:15.130Z,1.71
2023-01-20T20:57:03.068Z,1.55
2023-01-20T20:59:59.013Z,1.53
2023-01-20T21:02:49.100Z,1.43
2023-01-20T21:05:36.841Z,1.47
2023-01-20T21:08:26.373Z,1.51
2023-01-20T21:11:17.379Z,1.30
2023-01-20T21:14:04.984Z,1.39
2023-01-20T21:16:52.763Z,1.41
2023-01-20T21:19:43.250Z,1.35
2023-01-20T21:22:31.227Z,1.39
2023-01-20T21:25:18.949Z,1.26
2023-01-20T21:28:07.645Z,1.25
2023-01-20T21:30:55.711Z,1.24
2023-01-20T21:33:46.118Z,1.21
2023-01-20T21:36:34.717Z,1.09
2023-01-20T21:39:25.093Z,0.75
2023-01-20T21:42:24.655Z,0.98
2023-01-20T21:45:14.778Z,0.95
2023-01-20T21:48:24.909Z,1.06
2023-01-20T21:51:50.855Z,1.11
2023-01-20T21:54:40.341Z,1.23
2023-01-20T21:57:29.464Z,1.09
2023-01-20T22:00:18.024Z,1.01
2023-01-20T22:03:07.952Z,0.78
2023-01-20T22:05:57.644Z,0.83
2023-01-20T22:08:47.575Z,0.64
2023-01-20T22:11:35.197Z,0.76
2023-01-20T22:14:23.006Z,0.81
2023-01-20T22:17:13.624Z,0.76
2023-01-20T22:20:01.406Z,0.98
2023-01-20T22:22:50.093Z,1.14
2023-01-20T22:25:38.294Z,1.11
2023-01-20T22:28:26.131Z,1.19
2023-01-20T22:31:21.989Z,1.14
2023-01-20T22:34:10.580Z,1.00
2023-01-20T22:37:03.417Z,1.02
2023-01-20T22:39:51.124Z,0.89
2023-01-20T22:42:38.924Z,0.80
2023-01-20T22:45:27.130Z,0.63
2023-01-20T22:48:14.848Z,0.54
2023-01-20T22:51:07.383Z,0.74
2023-01-20T22:53:57.032Z,0.81
2023-01-20T22:56:44.865Z,0.48
2023-01-20T22:59:36.110Z,0.63
2023-01-20T23:02:23.798Z,0.50
2023-01-20T23:05:14.144Z,0.63
2023-01-20T23:08:04.980Z,0.63
2023-01-20T23:11:00.310Z,0.61
2023-01-20T23:13:51.248Z,0.59
2023-01-20T23:16:39.885Z,0.47
2023-01-20T23:19:27.519Z,0.35
2023-01-20T23:22:15.386Z,0.30
2023-01-20T23:25:02.988Z,0.37
2023-01-20T23:27:53.635Z,0.24
2023-01-20T23:30:41.715Z,0.43
2023-01-20T23:33:29.983Z,0.33
2023-01-20T23:36:20.100Z,0.32
2023-01-20T23:39:11.383Z,0.28
2023-01-20T23:41:59.021Z,0.13
2023-01-20T23:44:47.050Z,0.04
2023-01-20T23:47:34.710Z,0.23
2023-01-20T23:50:22.541Z,0.14
2023-01-20T23:53:10.179Z,0.10
2023-01-20T23:56:19.434Z,0.08
2023-01-20T23:59:07.092Z,-0.12
